Time;durP1;ratioP1;P1;durP2;ratioP2;P2;SDS_P1;SDS_P2;PMS_P1;PMS_P2;Temp;Humidity;BMP_temperature;BMP_pressure;BME280_temperature;BME280_humidity;BME280_pressure;Samples;Min_cycle;Max_cycle;Signal;HPM_P1;HPM_P2
2021/09/13 00:00:23;;;;;;;6.45;5.85;;;;;;;13.10;100.00;101857.63;5277126;28;20021;-67
2021/09/13 00:02:55;;;;;;;7.13;6.00;;;;;;;13.05;100.00;101851.91;5279008;28;20055;-67
2021/09/13 00:05:26;;;;;;;8.70;6.07;;;;;;;12.99;100.00;101842.69;5284243;28;20023;-67
2021/09/13 00:07:57;;;;;;;7.72;5.47;;;;;;;13.00;100.00;101847.03;5280448;28;20414;-68
2021/09/13 00:10:29;;;;;;;9.82;6.05;;;;;;;12.91;100.00;101851.19;5287646;28;20058;-67
2021/09/13 00:13:00;;;;;;;9.35;6.30;;;;;;;12.89;100.00;101845.22;5279708;28;20055;-67
2021/09/13 00:15:31;;;;;;;6.60;5.88;;;;;;;12.90;100.00;101848.69;5286495;28;20034;-67
2021/09/13 00:18:03;;;;;;;8.02;6.70;;;;;;;12.86;100.00;101848.09;5283509;28;20020;-67
2021/09/13 00:20:35;;;;;;;7.57;6.35;;;;;;;12.85;100.00;101843.81;5285835;28;20028;-67
2021/09/13 00:23:06;;;;;;;6.47;5.78;;;;;;;12.83;100.00;101836.97;5286552;28;20012;-67
2021/09/13 00:25:37;;;;;;;7.68;5.75;;;;;;;12.77;100.00;101835.69;5285487;28;20060;-67
2021/09/13 00:28:09;;;;;;;8.35;6.18;;;;;;;12.73;100.00;101825.50;5286297;28;20493;-67
2021/09/13 00:30:40;;;;;;;10.02;6.22;;;;;;;12.72;100.00;101840.44;5286172;28;20031;-68
2021/09/13 00:33:11;;;;;;;7.72;6.40;;;;;;;12.68;100.00;101833.75;5295198;28;20024;-67
2021/09/13 00:35:43;;;;;;;6.20;5.57;;;;;;;12.63;100.00;101834.13;5283297;28;20371;-67
2021/09/13 00:38:14;;;;;;;9.50;5.78;;;;;;;12.65;100.00;101824.34;5286672;28;20017;-67
2021/09/13 00:40:46;;;;;;;9.15;6.40;;;;;;;12.55;100.00;101830.44;5298407;28;20209;-68
2021/09/13 00:43:17;;;;;;;11.80;6.22;;;;;;;12.56;100.00;101822.41;5291668;28;20031;-68
2021/09/13 00:45:48;;;;;;;7.07;5.95;;;;;;;12.48;100.00;101822.16;5285630;28;20036;-68
2021/09/13 00:48:20;;;;;;;9.60;6.75;;;;;;;12.49;100.00;101825.63;5296714;28;20499;-67
2021/09/13 00:50:51;;;;;;;6.72;6.03;;;;;;;12.47;100.00;101822.31;5284170;28;20034;-68
2021/09/13 00:53:23;;;;;;;7.95;5.90;;;;;;;12.43;100.00;101829.59;5292297;28;20386;-67
2021/09/13 00:55:55;;;;;;;6.63;5.97;;;;;;;12.47;100.00;101830.19;5277120;28;20216;-68
2021/09/13 00:58:28;;;;;;;8.07;6.22;;;;;;;12.45;100.00;101826.81;5281610;28;20032;-67
2021/09/13 01:00:59;;;;;;;7.68;6.18;;;;;;;12.39;100.00;101826.34;5282436;28;20025;-68
2021/09/13 01:03:33;;;;;;;7.75;6.95;;;;;;;12.29;100.00;101817.50;5292847;28;20500;-67
2021/09/13 01:06:04;;;;;;;7.53;6.57;;;;;;;12.31;100.00;101827.88;5279384;28;20020;-68
2021/09/13 01:08:36;;;;;;;6.68;6.05;;;;;;;12.33;100.00;101829.44;5273565;28;20048;-68
2021/09/13 01:11:07;;;;;;;7.75;6.97;;;;;;;12.23;100.00;101833.72;5289105;28;20024;-67
2021/09/13 01:13:38;;;;;;;8.18;6.00;;;;;;;12.18;100.00;101823.56;5290605;28;20089;-67
2021/09/13 01:16:10;;;;;;;7.18;6.28;;;;;;;12.26;100.00;101824.78;5290014;28;20028;-68
2021/09/13 01:18:41;;;;;;;8.05;5.88;;;;;;;12.22;100.00;101832.03;5284492;28;20024;-68
2021/09/13 01:21:12;;;;;;;7.28;6.22;;;;;;;12.20;100.00;101826.09;5288980;28;20401;-67
2021/09/13 01:23:44;;;;;;;7.10;6.35;;;;;;;12.21;100.00;101829.53;5289292;28;20035;-69
2021/09/13 01:26:15;;;;;;;7.82;5.97;;;;;;;12.17;100.00;101832.41;5282090;28;20072;-67
2021/09/13 01:28:46;;;;;;;6.30;5.70;;;;;;;12.07;100.00;101830.56;5287082;28;20457;-69
2021/09/13 01:31:18;;;;;;;5.82;5.22;;;;;;;12.13;100.00;101830.97;5297289;28;20027;-67
2021/09/13 01:33:49;;;;;;;5.30;4.80;;;;;;;12.09;100.00;101829.53;5286988;28;20021;-67
2021/09/13 01:36:20;;;;;;;5.18;4.13;;;;;;;11.99;100.00;101831.16;5276061;28;20028;-68
2021/09/13 01:38:51;;;;;;;4.78;4.15;;;;;;;12.01;100.00;101838.91;5294377;28;20020;-68
2021/09/13 01:41:23;;;;;;;6.85;4.72;;;;;;;11.96;100.00;101838.44;5283735;28;20032;-68
2021/09/13 01:43:54;;;;;;;8.68;4.63;;;;;;;11.96;100.00;101838.44;5281016;28;20059;-67
2021/09/13 01:46:26;;;;;;;5.38;4.85;;;;;;;11.86;100.00;101833.88;5295418;28;20021;-68
2021/09/13 01:48:57;;;;;;;5.63;5.05;;;;;;;11.92;100.00;101829.94;5282826;28;20056;-68
2021/09/13 01:51:28;;;;;;;5.00;4.47;;;;;;;11.84;100.00;101834.94;5281618;28;20026;-68
2021/09/13 01:54:01;;;;;;;5.65;4.93;;;;;;;11.84;100.00;101835.75;5280803;28;20060;-68
2021/09/13 01:56:32;;;;;;;5.70;5.20;;;;;;;11.83;100.00;101831.47;5285994;28;20024;-67
2021/09/13 01:59:04;;;;;;;8.50;5.22;;;;;;;11.82;100.00;101835.03;5281379;28;20546;-68
2021/09/13 02:01:36;;;;;;;6.45;4.78;;;;;;;11.73;100.00;101832.22;5269057;28;20111;-68
2021/09/13 02:04:07;;;;;;;5.63;5.00;;;;;;;11.71;100.00;101828.91;5280930;28;20021;-68
2021/09/13 02:06:38;;;;;;;5.85;5.35;;;;;;;11.70;100.00;101830.66;5280532;28;20428;-67
2021/09/13 02:09:10;;;;;;;9.23;5.60;;;;;;;11.71;100.00;101827.09;5275429;28;20037;-68
2021/09/13 02:11:42;;;;;;;6.07;5.47;;;;;;;11.67;100.00;101829.13;5292216;28;20032;-67
2021/09/13 02:14:13;;;;;;;7.18;4.88;;;;;;;11.57;100.00;101816.78;5274743;28;20028;-67
2021/09/13 02:16:44;;;;;;;6.55;5.85;;;;;;;11.61;100.00;101826.09;5288371;28;20024;-68
2021/09/13 02:19:15;;;;;;;7.55;6.13;;;;;;;11.64;100.00;101824.09;5288323;28;20021;-68
2021/09/13 02:21:47;;;;;;;7.65;5.47;;;;;;;11.66;100.00;101813.47;5280812;28;20052;-67
2021/09/13 02:24:18;;;;;;;6.65;5.95;;;;;;;11.70;100.00;101817.53;5297813;28;20016;-68
2021/09/13 02:26:49;;;;;;;7.32;5.97;;;;;;;11.64;100.00;101813.59;5276082;28;20025;-68
2021/09/13 02:29:21;;;;;;;6.55;5.47;;;;;;;11.59;100.00;101815.72;5286993;28;20081;-67
2021/09/13 02:31:52;;;;;;;7.28;5.85;;;;;;;11.59;100.00;101814.84;5263534;28;20021;-68
2021/09/13 02:34:23;;;;;;;8.00;5.93;;;;;;;11.54;100.00;101807.31;5263903;28;20085;-68
2021/09/13 02:36:54;;;;;;;6.47;5.72;;;;;;;11.53;100.00;101812.69;5279408;28;20034;-67
2021/09/13 02:39:26;;;;;;;8.13;6.03;;;;;;;11.50;100.00;101818.16;5280020;28;20012;-68
2021/09/13 02:41:57;;;;;;;6.20;5.60;;;;;;;11.44;100.00;101816.84;5285360;28;20024;-67
2021/09/13 02:44:28;;;;;;;8.23;6.03;;;;;;;11.47;100.00;101807.88;5280307;28;20111;-68
2021/09/13 02:46:59;;;;;;;7.57;5.85;;;;;;;11.40;100.00;101797.88;5286940;28;20040;-68
2021/09/13 02:49:31;;;;;;;7.88;6.63;;;;;;;11.39;100.00;101808.44;5266859;28;20040;-68
2021/09/13 02:52:02;;;;;;;7.00;6.30;;;;;;;11.44;100.00;101816.84;5280126;28;20021;-68
2021/09/13 02:54:34;;;;;;;7.65;6.50;;;;;;;11.38;100.00;101818.13;5280643;28;20027;-67
2021/09/13 02:57:05;;;;;;;8.32;6.30;;;;;;;11.34;100.00;101816.66;5277553;28;20025;-67
2021/09/13 02:59:36;;;;;;;7.28;6.63;;;;;;;11.39;100.00;101803.19;5280099;28;20484;-69
2021/09/13 03:02:07;;;;;;;10.10;6.68;;;;;;;11.34;100.00;101805.34;5280363;28;20166;-68
2021/09/13 03:04:39;;;;;;;8.02;6.35;;;;;;;11.31;100.00;101810.81;5279459;28;20035;-67
2021/09/13 03:07:13;;;;;;;8.93;6.22;;;;;;;11.25;100.00;101814.72;5275952;28;20469;-68
2021/09/13 03:09:44;;;;;;;12.43;7.28;;;;;;;11.27;100.00;101810.19;5279918;28;20041;-68
2021/09/13 03:12:15;;;;;;;8.70;6.43;;;;;;;11.26;100.00;101811.13;5280113;28;20490;-67
2021/09/13 03:14:46;;;;;;;8.55;6.68;;;;;;;11.29;100.00;101807.44;5269121;28;20028;-67
2021/09/13 03:17:18;;;;;;;8.10;6.50;;;;;;;11.25;100.00;101800.75;5280363;28;20021;-67
2021/09/13 03:19:49;;;;;;;6.72;5.90;;;;;;;11.23;100.00;101808.72;5279989;28;20111;-68
2021/09/13 03:22:20;;;;;;;7.82;7.00;;;;;;;11.20;100.00;101806.31;5278583;28;20081;-67
2021/09/13 03:24:52;;;;;;;8.45;6.65;;;;;;;11.17;100.00;101804.78;5278533;28;20248;-67
2021/09/13 03:27:23;;;;;;;8.25;6.28;;;;;;;11.11;100.00;101814.88;5279953;28;20020;-67
2021/09/13 03:29:54;;;;;;;7.68;6.40;;;;;;;11.11;100.00;101809.63;5279195;28;20482;-68
2021/09/13 03:32:25;;;;;;;8.32;6.05;;;;;;;11.08;100.00;101805.41;5259320;28;20025;-67
2021/09/13 03:34:57;;;;;;;7.32;5.97;;;;;;;11.00;100.00;101801.69;5262569;28;20024;-67
2021/09/13 03:37:28;;;;;;;6.97;6.18;;;;;;;11.02;100.00;101810.25;5279849;28;20406;-68
2021/09/13 03:40:00;;;;;;;7.20;5.80;;;;;;;11.02;100.00;101812.88;5278235;28;20367;-68
2021/09/13 03:42:31;;;;;;;7.85;5.80;;;;;;;11.00;100.00;101817.41;5276506;28;20410;-67
2021/09/13 03:45:03;;;;;;;6.05;5.47;;;;;;;10.98;100.00;101814.88;5278447;28;20025;-68
2021/09/13 03:47:34;;;;;;;8.18;5.13;;;;;;;10.94;100.00;101813.44;5293745;28;20027;-68
2021/09/13 03:50:05;;;;;;;5.57;5.07;;;;;;;10.93;100.00;101814.38;5300935;28;20016;-67
2021/09/13 03:52:37;;;;;;;7.60;5.45;;;;;;;10.88;100.00;101809.47;5288271;28;20026;-68
2021/09/13 03:55:08;;;;;;;6.50;5.30;;;;;;;10.91;100.00;101808.41;5282872;28;20027;-67
2021/09/13 03:57:40;;;;;;;8.68;5.25;;;;;;;10.88;100.00;101811.25;5271391;28;20036;-67
2021/09/13 04:00:11;;;;;;;7.72;5.72;;;;;;;10.87;100.00;101802.56;5270681;28;20096;-68
2021/09/13 04:02:47;;;;;;;7.90;5.43;;;;;;;10.85;100.00;101800.97;5272423;28;20032;-68
2021/09/13 04:05:21;;;;;;;7.20;5.40;;;;;;;10.84;100.00;101800.16;5281692;28;20035;-67
2021/09/13 04:12:58;;;;;;;5.50;5.00;;;;;;;10.78;100.00;101805.81;5280089;28;20055;-67
2021/09/13 04:15:29;;;;;;;5.55;5.03;;;;;;;10.78;100.00;101808.44;5282059;28;20024;-68
2021/09/13 04:18:01;;;;;;;6.82;5.75;;;;;;;10.75;100.00;101797.31;5283384;28;20103;-67
2021/09/13 04:20:32;;;;;;;8.57;5.32;;;;;;;10.69;100.00;101804.69;5277814;28;20115;-68
2021/09/13 04:23:03;;;;;;;5.80;5.10;;;;;;;10.69;100.00;101801.22;5282771;28;20028;-67
2021/09/13 04:25:35;;;;;;;7.43;5.18;;;;;;;10.68;100.00;101800.41;5283292;28;20025;-67
2021/09/13 04:28:06;;;;;;;5.63;5.07;;;;;;;10.60;100.00;101799.22;5281103;28;20107;-68
2021/09/13 04:30:37;;;;;;;6.57;5.45;;;;;;;10.60;100.00;101801.84;5281868;28;20089;-67
2021/09/13 04:33:09;;;;;;;6.75;5.05;;;;;;;10.61;100.00;101806.16;5281971;28;20021;-67
2021/09/13 04:35:40;;;;;;;8.00;5.40;;;;;;;10.55;100.00;101801.34;5283198;28;20077;-67
2021/09/13 04:38:11;;;;;;;8.90;5.55;;;;;;;10.56;100.00;101803.84;5279125;28;20032;-67
2021/09/13 04:40:43;;;;;;;9.77;5.70;;;;;;;10.52;100.00;101807.63;5282910;28;20028;-68
2021/09/13 04:43:14;;;;;;;10.63;5.28;;;;;;;10.50;100.00;101801.66;5282304;28;20025;-67
2021/09/13 04:45:45;;;;;;;8.90;5.38;;;;;;;10.58;100.00;101814.25;5271845;28;20416;-68
2021/09/13 04:48:17;;;;;;;9.02;5.18;;;;;;;10.54;100.00;101803.13;5281930;28;20035;-68
2021/09/13 04:50:48;;;;;;;11.07;5.95;;;;;;;10.53;100.00;101800.59;5282913;28;20037;-67
2021/09/13 04:53:20;;;;;;;6.65;5.80;;;;;;;10.48;100.00;101793.06;5280322;28;20551;-67
2021/09/13 04:55:52;;;;;;;8.98;5.50;;;;;;;10.47;100.00;101801.88;5280955;28;20485;-67
2021/09/13 04:58:23;;;;;;;11.35;6.32;;;;;;;10.41;100.00;101794.44;5278789;28;20300;-68
2021/09/13 05:00:54;;;;;;;7.75;6.25;;;;;;;10.48;100.00;101806.16;5279793;28;20024;-67
2021/09/13 05:03:25;;;;;;;10.52;6.72;;;;;;;10.44;100.00;101808.16;5282868;28;20031;-67
2021/09/13 05:05:57;;;;;;;10.20;6.75;;;;;;;10.46;100.00;101808.06;5282194;28;20032;-67
2021/09/13 05:08:28;;;;;;;9.85;7.13;;;;;;;10.50;100.00;101806.06;5274215;28;20048;-67
2021/09/13 05:10:59;;;;;;;11.00;7.57;;;;;;;10.46;100.00;101818.53;5277196;28;20024;-67
2021/09/13 05:13:31;;;;;;;9.20;7.28;;;;;;;10.52;100.00;101817.28;5271236;28;20362;-67
2021/09/13 05:16:02;;;;;;;10.13;7.80;;;;;;;10.47;100.00;101814.97;5270086;28;20534;-67
2021/09/13 05:18:34;;;;;;;10.50;8.98;;;;;;;10.53;100.00;101811.06;5271124;28;20478;-67
2021/09/13 05:21:05;;;;;;;15.43;10.48;;;;;;;10.52;100.00;101819.88;5269593;28;20094;-67
2021/09/13 05:23:36;;;;;;;13.95;11.07;;;;;;;10.51;100.00;101820.84;5281549;28;20032;-67
2021/09/13 05:26:07;;;;;;;13.73;11.13;;;;;;;10.55;100.00;101820.53;5278763;28;20438;-67
2021/09/13 05:28:39;;;;;;;13.32;11.20;;;;;;;10.61;100.00;101814.03;5272048;28;20433;-68
2021/09/13 05:31:10;;;;;;;14.25;12.60;;;;;;;10.59;100.00;101821.16;5263129;28;20054;-67
2021/09/13 05:33:41;;;;;;;15.55;12.68;;;;;;;10.60;100.00;101822.81;5270562;28;20016;-68
2021/09/13 05:36:13;;;;;;;13.80;11.30;;;;;;;10.61;100.00;101820.09;5273264;28;20020;-68
2021/09/13 05:38:44;;;;;;;15.10;11.38;;;;;;;10.68;100.00;101829.22;5281796;28;20020;-68
2021/09/13 05:41:15;;;;;;;13.43;11.13;;;;;;;10.67;100.00;101832.75;5278321;28;20043;-68
2021/09/13 05:43:47;;;;;;;16.08;11.65;;;;;;;10.73;100.00;101835.94;5270915;28;20028;-68
2021/09/13 05:46:18;;;;;;;15.02;11.63;;;;;;;10.71;100.00;101833.38;5283919;28;20126;-67
2021/09/13 05:48:49;;;;;;;14.30;11.10;;;;;;;10.76;100.00;101838.31;5276501;28;20083;-68
2021/09/13 05:51:20;;;;;;;14.10;12.25;;;;;;;10.78;100.00;101834.66;5270570;28;20063;-68
2021/09/13 05:53:52;;;;;;;13.82;11.57;;;;;;;10.84;100.00;101834.22;5272840;28;20036;-68
2021/09/13 05:56:23;;;;;;;13.75;10.98;;;;;;;10.82;100.00;101837.88;5268292;28;20125;-68
2021/09/13 05:58:54;;;;;;;14.15;11.57;;;;;;;10.82;100.00;101836.09;5269414;28;20016;-68
2021/09/13 06:01:26;;;;;;;15.18;12.38;;;;;;;10.91;100.00;101838.09;5266357;28;20056;-68
2021/09/13 06:03:57;;;;;;;15.95;12.40;;;;;;;10.89;100.00;101834.72;5263849;28;20060;-68
2021/09/13 06:06:29;;;;;;;15.43;12.98;;;;;;;10.91;100.00;101838.09;5254943;28;20116;-69
2021/09/13 06:09:01;;;;;;;18.45;14.40;;;;;;;10.95;100.00;101838.72;5261621;28;20041;-68
2021/09/13 06:11:32;;;;;;;23.10;15.55;;;;;;;10.93;100.00;101841.44;5261368;28;20043;-68
2021/09/13 06:14:04;;;;;;;18.25;15.50;;;;;;;10.97;100.00;101836.81;5256774;28;20032;-68
2021/09/13 06:16:35;;;;;;;18.50;14.50;;;;;;;10.95;100.00;101831.69;5257175;28;20039;-68
2021/09/13 06:19:09;;;;;;;19.15;15.45;;;;;;;11.00;100.00;101838.38;5253282;28;20447;-69
2021/09/13 06:21:40;;;;;;;18.30;15.02;;;;;;;11.01;100.00;101842.69;5261054;28;20119;-68
2021/09/13 06:24:11;;;;;;;19.42;14.32;;;;;;;11.03;100.00;101843.44;5262909;28;20035;-67
2021/09/13 06:26:43;;;;;;;17.70;13.55;;;;;;;11.07;100.00;101855.38;5256950;28;20033;-68
2021/09/13 06:29:15;;;;;;;16.85;12.60;;;;;;;10.99;100.00;101848.03;5258952;28;20025;-68
2021/09/13 06:31:46;;;;;;;15.30;12.23;;;;;;;11.07;100.00;101852.75;5257139;28;20025;-68
2021/09/13 06:34:18;;;;;;;15.43;11.95;;;;;;;11.07;100.00;101858.00;5260575;28;20033;-68
2021/09/13 06:36:49;;;;;;;17.00;11.82;;;;;;;11.11;100.00;101848.97;5256947;28;20032;-68
2021/09/13 06:39:21;;;;;;;18.13;12.95;;;;;;;11.15;100.00;101847.78;5258611;28;20051;-68
2021/09/13 06:41:52;;;;;;;13.35;11.15;;;;;;;11.22;100.00;101845.56;5260627;28;20493;-68
2021/09/13 06:44:25;;;;;;;13.50;11.85;;;;;;;11.27;100.00;101851.31;5262684;28;20036;-68
2021/09/13 06:49:35;;;;;;;15.07;12.35;;;;;;;11.49;100.00;101861.13;5261622;28;20595;-68
2021/09/13 06:52:06;;;;;;;20.52;14.15;;;;;;;11.55;100.00;101858.03;5261030;28;20021;-67
2021/09/13 06:54:37;;;;;;;19.33;14.18;;;;;;;11.58;100.00;101852.56;5257941;28;20040;-68
2021/09/13 06:57:09;;;;;;;19.60;14.80;;;;;;;11.63;100.00;101850.44;5262331;28;20033;-68
2021/09/13 06:59:41;;;;;;;18.45;14.85;;;;;;;11.66;100.00;101850.22;5261283;28;20490;-68
2021/09/13 07:02:12;;;;;;;19.87;15.10;;;;;;;11.74;100.00;101853.09;5264614;28;20126;-69
2021/09/13 07:04:44;;;;;;;19.95;14.88;;;;;;;11.77;100.00;101854.66;5260969;28;20300;-68
2021/09/13 07:07:15;;;;;;;20.92;15.93;;;;;;;11.84;100.00;101848.06;5254328;28;20036;-68
2021/09/13 07:09:46;;;;;;;17.33;14.20;;;;;;;11.84;100.00;101843.63;5258910;28;20044;-68
2021/09/13 07:12:19;;;;;;;19.08;15.07;;;;;;;11.95;100.00;101852.50;5260810;28;20124;-68
2021/09/13 07:14:50;;;;;;;20.00;15.18;;;;;;;11.98;100.00;101852.28;5262326;28;20213;-68
2021/09/13 07:17:22;;;;;;;19.77;15.10;;;;;;;12.10;100.00;101838.22;5259334;28;20063;-68
2021/09/13 07:19:53;;;;;;;19.58;15.90;;;;;;;12.18;100.00;101843.75;5258793;28;20013;-68
2021/09/13 07:22:24;;;;;;;21.42;15.25;;;;;;;12.26;100.00;101849.25;5257674;28;20025;-68
2021/09/13 07:24:56;;;;;;;19.58;16.40;;;;;;;12.45;100.00;101846.06;5259697;28;20035;-68
2021/09/13 07:27:27;;;;;;;21.75;16.58;;;;;;;12.48;100.00;101852.88;5263427;28;21034;-69
2021/09/13 07:30:00;;;;;;;21.05;15.45;;;;;;;12.54;100.00;101853.25;5264613;28;20032;-68
2021/09/13 07:32:32;;;;;;;20.90;15.43;;;;;;;12.81;100.00;101860.78;5265398;28;20456;-67
2021/09/13 07:35:06;;;;;;;21.90;15.75;;;;;;;12.87;100.00;101862.91;5266563;28;20091;-68
2021/09/13 07:37:38;;;;;;;18.15;13.98;;;;;;;12.97;100.00;101868.31;5263860;28;20037;-69
2021/09/13 07:40:10;;;;;;;22.87;14.67;;;;;;;13.10;100.00;101863.72;5263483;28;20028;-68
2021/09/13 07:42:42;;;;;;;20.00;13.43;;;;;;;13.18;100.00;101867.56;5265069;28;20032;-67
2021/09/13 07:45:13;;;;;;;16.48;11.80;;;;;;;13.38;100.00;101859.78;5263480;28;20279;-68
2021/09/13 07:47:45;;;;;;;19.08;13.40;;;;;;;13.47;100.00;101870.53;5265747;28;20036;-68
2021/09/13 07:50:16;;;;;;;19.77;12.73;;;;;;;13.55;100.00;101876.84;5264204;28;20058;-67
2021/09/13 07:52:47;;;;;;;18.13;13.65;;;;;;;13.66;100.00;101875.13;5268267;28;20078;-67
2021/09/13 07:55:19;;;;;;;21.42;14.63;;;;;;;13.83;100.00;101883.34;5268179;28;20391;-68
2021/09/13 07:57:50;;;;;;;19.13;13.82;;;;;;;13.95;100.00;101885.94;5266489;28;20397;-68
2021/09/13 08:00:21;;;;;;;17.63;11.90;;;;;;;14.11;100.00;101889.78;5261910;28;21249;-68
2021/09/13 08:02:53;;;;;;;18.63;11.80;;;;;;;14.20;100.00;101890.81;5254046;28;20312;-68
2021/09/13 08:05:24;;;;;;;15.68;11.27;;;;;;;14.32;100.00;101884.53;5260690;28;20500;-68
2021/09/13 08:07:55;;;;;;;17.85;10.05;;;;;;;14.37;100.00;101886.78;5262611;28;20041;-68
2021/09/13 08:10:26;;;;;;;17.52;11.18;;;;;;;14.51;100.00;101894.41;5264453;28;20075;-68
2021/09/13 08:12:58;;;;;;;15.07;9.93;;;;;;;14.62;100.00;101890.81;5261117;28;20487;-69
2021/09/13 08:15:29;;;;;;;17.25;10.98;;;;;;;14.79;100.00;101889.41;5262986;28;20037;-68
2021/09/13 08:18:00;;;;;;;15.05;10.52;;;;;;;14.93;100.00;101888.22;5262248;28;20183;-68
2021/09/13 08:20:32;;;;;;;15.82;9.50;;;;;;;15.06;100.00;101894.91;5260286;28;20038;-68
2021/09/13 08:23:04;;;;;;;15.27;8.25;;;;;;;15.20;100.00;101890.25;5265016;28;20035;-68
2021/09/13 08:25:35;;;;;;;11.23;6.75;;;;;;;15.39;100.00;101894.75;5263704;28;20386;-67
2021/09/13 08:28:06;;;;;;;12.80;6.47;;;;;;;15.45;100.00;101899.47;5264521;28;20037;-69
2021/09/13 08:30:38;;;;;;;12.73;7.20;;;;;;;15.54;100.00;101904.78;5263148;28;20036;-68
2021/09/13 08:33:09;;;;;;;10.88;5.22;;;;;;;15.64;100.00;101899.50;5263014;28;20506;-69
2021/09/13 08:35:41;;;;;;;7.97;5.22;;;;;;;15.72;100.00;101890.91;5265692;28;20033;-69
2021/09/13 08:38:12;;;;;;;6.78;4.53;;;;;;;15.82;100.00;101897.88;5262359;28;20025;-68
2021/09/13 08:40:43;;;;;;;10.02;4.93;;;;;;;15.96;100.00;101901.09;5265260;28;20029;-68
2021/09/13 08:43:16;;;;;;;8.88;4.82;;;;;;;16.08;100.00;101901.78;5265017;28;20028;-68
2021/09/13 08:48:27;;;;;;;8.00;5.00;;;;;;;16.34;100.00;101900.22;5264804;28;20058;-69
2021/09/13 08:53:33;;;;;;;8.18;5.30;;;;;;;16.53;100.00;101896.69;5263838;28;20048;-69
2021/09/13 08:56:08;;;;;;;9.23;4.95;;;;;;;16.60;100.00;101895.13;5263581;28;20024;-69
2021/09/13 08:58:44;;;;;;;8.38;5.10;;;;;;;16.84;100.00;101915.84;5261735;28;20025;-69
2021/09/13 09:01:17;;;;;;;7.57;5.95;;;;;;;16.88;100.00;101911.09;5259349;28;20033;-69
2021/09/13 09:03:50;;;;;;;9.18;5.40;;;;;;;17.07;100.00;101908.34;5259579;28;20039;-69
2021/09/13 09:06:36;;;;;;;9.68;5.82;;;;;;;17.22;100.00;101909.53;5263182;28;20512;-69
2021/09/13 09:09:13;;;;;;;8.93;5.53;;;;;;;17.34;100.00;101912.81;5264224;28;20076;-68
2021/09/13 09:12:20;;;;;;;7.28;4.70;;;;;;;17.47;100.00;101918.59;5263084;28;20033;-69
2021/09/13 09:14:52;;;;;;;7.70;4.53;;;;;;;17.49;100.00;101919.28;5261909;28;20151;-69
2021/09/13 09:17:26;;;;;;;5.32;3.65;;;;;;;17.62;100.00;101910.97;5263891;28;20075;-69
2021/09/13 09:20:04;;;;;;;6.07;3.38;;;;;;;17.82;100.00;101927.59;5265472;28;20025;-69
2021/09/13 09:22:38;;;;;;;6.80;3.78;;;;;;;17.81;100.00;101922.47;5265910;28;20033;-68
2021/09/13 09:25:24;;;;;;;6.05;3.03;;;;;;;17.94;100.00;101925.53;5265421;28;20032;-69
2021/09/13 09:27:59;;;;;;;5.93;3.05;;;;;;;17.97;100.00;101922.59;5264743;28;20025;-70
2021/09/13 09:30:39;;;;;;;5.32;3.35;;;;;;;18.06;100.00;101919.03;5263946;28;20025;-69
2021/09/13 09:33:19;;;;;;;6.93;3.45;;;;;;;17.94;100.00;101914.94;5265492;28;20036;-69
2021/09/13 09:35:54;;;;;;;6.07;3.13;;;;;;;18.01;100.00;101921.31;5261919;28;20141;-70
2021/09/13 09:38:34;;;;;;;4.65;2.95;;;;;;;18.16;100.00;101917.13;5265940;28;20028;-68
2021/09/13 09:41:11;;;;;;;4.90;3.88;;;;;;;18.12;100.00;101913.13;5263392;28;20120;-69
2021/09/13 09:44:00;;;;;;;7.95;3.70;;;;;;;18.30;100.00;101913.09;5264719;28;20025;-68
2021/09/13 09:46:40;;;;;;;7.05;3.90;;;;;;;18.41;100.00;101906.69;5267834;28;20498;-68
2021/09/13 09:49:20;;;;;;;9.15;4.53;;;;;;;18.51;100.00;101909.25;5263060;28;20237;-68
2021/09/13 09:51:54;;;;;;;9.07;4.60;;;;;;;18.60;100.00;101911.81;5262642;28;20032;-69
2021/09/13 09:54:28;;;;;;;9.52;5.10;;;;;;;18.73;100.00;101905.25;5262795;28;20032;-69
2021/09/13 09:57:07;;;;;;;7.75;4.25;;;;;;;18.84;100.00;101905.00;5262706;28;20074;-69
2021/09/13 09:59:40;;;;;;;7.35;4.20;;;;;;;18.75;100.00;101897.97;5262837;28;20028;-70
2021/09/13 10:02:19;;;;;;;7.60;4.28;;;;;;;19.05;100.00;101897.44;5263267;28;20265;-69
2021/09/13 10:04:53;;;;;;;4.88;3.40;;;;;;;18.92;100.00;101905.84;5262554;28;20042;-70
2021/09/13 10:07:25;;;;;;;5.13;2.97;;;;;;;19.03;100.00;101907.41;5263513;28;20028;-69
2021/09/13 10:09:57;;;;;;;6.83;2.77;;;;;;;19.05;100.00;101901.91;5261615;28;20549;-70
2021/09/13 10:12:29;;;;;;;3.38;1.98;;;;;;;19.26;100.00;101896.19;5262119;28;20033;-69
2021/09/13 10:15:03;;;;;;;4.40;2.22;;;;;;;19.26;100.00;101896.19;5261952;28;20375;-69
2021/09/13 10:17:35;;;;;;;4.95;2.10;;;;;;;19.58;100.00;101884.78;5266933;28;20104;-69
2021/09/13 10:20:08;;;;;;;5.73;3.17;;;;;;;19.68;100.00;101888.16;5264200;28;20373;-69
2021/09/13 10:22:43;;;;;;;7.32;2.92;;;;;;;19.83;100.00;101889.19;5266931;28;20488;-70
2021/09/13 10:25:14;;;;;;;6.25;2.30;;;;;;;19.85;100.00;101889.84;5266242;28;20670;-69
2021/09/13 10:27:47;;;;;;;5.40;2.20;;;;;;;19.88;100.00;101892.16;5263438;28;20051;-69
2021/09/13 10:30:20;;;;;;;3.47;1.50;;;;;;;19.85;100.00;101892.53;5262613;28;20028;-69
2021/09/13 10:33:08;;;;;;;5.93;2.30;;;;;;;19.72;100.00;101894.00;5262015;28;20119;-69
2021/09/13 10:35:51;;;;;;;7.03;2.72;;;;;;;19.85;100.00;101886.34;5261639;28;20034;-69
2021/09/13 10:38:42;;;;;;;4.18;2.25;;;;;;;20.02;100.00;101877.38;5258431;28;20025;-70
2021/09/13 10:41:51;;;;;;;4.00;1.77;;;;;;;20.08;100.00;101882.03;5252397;28;20029;-69
2021/09/13 10:44:30;;;;;;;3.08;1.52;;;;;;;19.92;100.00;101884.69;5258364;28;20044;-69
2021/09/13 10:47:06;;;;;;;3.88;1.50;;;;;;;19.90;100.00;101876.06;5261785;28;20134;-69
2021/09/13 10:49:37;;;;;;;4.55;1.60;;;;;;;19.79;100.00;101871.06;5261004;28;20029;-69
2021/09/13 10:52:26;;;;;;;3.27;1.40;;;;;;;19.98;100.00;101862.75;5258085;28;20031;-69
2021/09/13 10:55:11;;;;;;;3.53;1.42;;;;;;;20.06;100.00;101869.91;5263281;28;20120;-70
2021/09/13 10:57:52;;;;;;;4.15;2.03;;;;;;;19.99;100.00;101861.75;5262408;28;20549;-69
2021/09/13 11:00:44;;;;;;;4.30;2.72;;;;;;;20.27;100.00;101859.56;5259903;28;20072;-70
2021/09/13 11:03:34;;;;;;;4.37;2.87;;;;;;;20.36;100.00;101861.19;5261663;28;20486;-70
2021/09/13 11:06:11;;;;;;;4.70;2.60;;;;;;;20.70;100.00;101854.00;5261007;28;20286;-70
2021/09/13 11:08:50;;;;;;;6.18;2.50;;;;;;;20.59;100.00;101857.84;5261301;28;20415;-69
2021/09/13 11:11:32;;;;;;;4.63;2.70;;;;;;;20.63;100.00;101853.84;5264286;28;20147;-68
2021/09/13 11:14:10;;;;;;;4.78;3.08;;;;;;;20.49;100.00;101857.16;5264276;28;20036;-70
2021/09/13 11:16:46;;;;;;;5.65;3.90;;;;;;;20.62;100.00;101844.19;5261940;28;20447;-71
2021/09/13 11:19:18;;;;;;;6.38;3.03;;;;;;;20.62;100.00;101850.34;5261952;28;20072;-71
2021/09/13 11:21:55;;;;;;;4.25;2.00;;;;;;;20.58;100.00;101840.22;5263240;28;20039;-69
2021/09/13 11:24:29;;;;;;;3.58;2.88;;;;;;;20.73;100.00;101829.69;5260387;28;20039;-70
2021/09/13 11:27:06;;;;;;;4.82;3.00;;;;;;;20.82;100.00;101840.13;5263131;28;20112;-70
2021/09/13 11:29:40;;;;;;;7.10;3.03;;;;;;;20.64;100.00;101835.03;5263457;28;20049;-69
2021/09/13 11:32:16;;;;;;;9.32;3.45;;;;;;;20.57;100.00;101835.88;5264109;28;20029;-70
2021/09/13 11:34:50;;;;;;;4.97;3.33;;;;;;;20.48;100.00;101837.72;5261595;28;20135;-69
2021/09/13 11:37:26;;;;;;;4.97;3.45;;;;;;;20.66;100.00;101834.88;5261650;28;20056;-70
2021/09/13 11:40:00;;;;;;;5.10;2.90;;;;;;;20.49;100.00;101834.06;5259662;28;20024;-69
2021/09/13 11:42:35;;;;;;;4.75;2.75;;;;;;;20.53;100.00;101831.91;5262841;28;20115;-70
2021/09/13 11:45:11;;;;;;;5.57;2.80;;;;;;;20.61;100.00;101832.72;5262546;28;20033;-69
2021/09/13 11:47:43;;;;;;;8.50;3.38;;;;;;;20.82;100.00;101820.66;5262879;28;20306;-72
2021/09/13 11:50:14;;;;;;;6.87;2.90;;;;;;;20.90;100.00;101824.09;5260095;28;20021;-70